sensor_id;sensor_type;location;lat;lon;timestamp;temperature;humidity
40848;DHT22;26570;50.962;5.340;2023-02-28T01:01:50;0.00;99.90
40848;DHT22;26570;50.962;5.340;2023-02-28T01:04:35;0.00;99.90
40848;DHT22;26570;50.962;5.340;2023-02-28T01:07:20;-0.10;99.90
40848;DHT22;26570;50.962;5.340;2023-02-28T01:10:06;-0.10;99.90
40848;DHT22;26570;50.962;5.340;2023-02-28T01:13:15;-0.10;99.90
40848;DHT22;26570;50.962;5.340;2023-02-28T01:16:00;-0.20;99.90
40848;DHT22;26570;50.962;5.340;2023-02-28T01:18:45;-0.20;99.90
40848;DHT22;26570;50.962;5.340;2023-02-28T01:21:31;-0.10;99.90
40848;DHT22;26570;50.962;5.340;2023-02-28T01:24:16;-0.10;99.90
40848;DHT22;26570;50.962;5.340;2023-02-28T01:27:02;0.00;99.90
40848;DHT22;26570;50.962;5.340;2023-02-28T01:29:50;-0.10;99.90
40848;DHT22;26570;50.962;5.340;2023-02-28T01:32:36;-0.20;99.90
40848;DHT22;26570;50.962;5.340;2023-02-28T01:35:21;-0.20;99.90
40848;DHT22;26570;50.962;5.340;2023-02-28T01:38:06;-0.20;99.90
40848;DHT22;26570;50.962;5.340;2023-02-28T01:40:51;-0.20;99.90
40848;DHT22;26570;50.962;5.340;2023-02-28T01:46:27;-0.20;99.90
40848;DHT22;26570;50.962;5.340;2023-02-28T01:49:15;-0.30;99.90
40848;DHT22;26570;50.962;5.340;2023-02-28T01:52:01;-0.30;99.90
40848;DHT22;26570;50.962;5.340;2023-02-28T01:54:51;-0.30;99.90
40848;DHT22;26570;50.962;5.340;2023-02-28T01:57:56;-0.20;99.90
40848;DHT22;26570;50.962;5.340;2023-02-28T02:00:42;-0.30;99.90
40848;DHT22;26570;50.962;5.340;2023-02-28T02:03:27;-0.40;99.90
40848;DHT22;26570;50.962;5.340;2023-02-28T02:06:12;-0.40;99.90
40848;DHT22;26570;50.962;5.340;2023-02-28T02:08:57;-0.30;99.90
40848;DHT22;26570;50.962;5.340;2023-02-28T02:11:43;-0.20;99.90
40848;DHT22;26570;50.962;5.340;2023-02-28T02:14:41;-0.30;99.90
40848;DHT22;26570;50.962;5.340;2023-02-28T02:17:44;-0.40;99.90
40848;DHT22;26570;50.962;5.340;2023-02-28T02:27:48;-0.40;99.90
40848;DHT22;26570;50.962;5.340;2023-02-28T02:34:18;-0.40;99.90
40848;DHT22;26570;50.962;5.340;2023-02-28T02:37:29;-0.60;99.90
40848;DHT22;26570;50.962;5.340;2023-02-28T02:40:20;-0.60;99.90
40848;DHT22;26570;50.962;5.340;2023-02-28T02:46:38;-0.70;99.90
40848;DHT22;26570;50.962;5.340;2023-02-28T02:49:30;-0.60;99.90
40848;DHT22;26570;50.962;5.340;2023-02-28T02:52:18;-0.80;99.90
40848;DHT22;26570;50.962;5.340;2023-02-28T02:55:07;-0.80;99.90
40848;DHT22;26570;50.962;5.340;2023-02-28T02:58:00;-0.80;99.90
40848;DHT22;26570;50.962;5.340;2023-02-28T03:00:51;-0.90;99.90
40848;DHT22;26570;50.962;5.340;2023-02-28T03:03:37;-0.80;99.90
40848;DHT22;26570;50.962;5.340;2023-02-28T03:06:23;-0.80;99.90
40848;DHT22;26570;50.962;5.340;2023-02-28T03:09:08;-0.80;99.90
40848;DHT22;26570;50.962;5.340;2023-02-28T03:11:55;-0.80;99.90
40848;DHT22;26570;50.962;5.340;2023-02-28T03:18:06;-0.80;99.90
40848;DHT22;26570;50.962;5.340;2023-02-28T03:27:06;-0.80;99.90
40848;DHT22;26570;50.962;5.340;2023-02-28T03:29:58;-0.80;99.90
40848;DHT22;26570;50.962;5.340;2023-02-28T03:35:45;-0.70;99.90
40848;DHT22;26570;50.962;5.340;2023-02-28T03:38:39;-0.70;99.90
40848;DHT22;26570;50.962;5.340;2023-02-28T03:41:43;-0.70;99.90
40848;DHT22;26570;50.962;5.340;2023-02-28T03:44:38;-0.70;99.90
40848;DHT22;26570;50.962;5.340;2023-02-28T03:47:32;-0.70;99.90
40848;DHT22;26570;50.962;5.340;2023-02-28T03:50:34;-0.70;99.90
40848;DHT22;26570;50.962;5.340;2023-02-28T03:53:32;-0.60;99.90
40848;DHT22;26570;50.962;5.340;2023-02-28T03:56:56;-0.40;99.90
40848;DHT22;26570;50.962;5.340;2023-02-28T03:59:47;-0.40;99.90
40848;DHT22;26570;50.962;5.340;2023-02-28T04:02:35;1.00;99.90
40848;DHT22;26570;50.962;5.340;2023-02-28T04:05:21;-0.50;99.90
40848;DHT22;26570;50.962;5.340;2023-02-28T04:08:07;-0.40;99.90
40848;DHT22;26570;50.962;5.340;2023-02-28T04:11:06;-0.50;99.90
40848;DHT22;26570;50.962;5.340;2023-02-28T04:14:15;-0.40;99.90
40848;DHT22;26570;50.962;5.340;2023-02-28T04:17:01;-0.50;99.90
40848;DHT22;26570;50.962;5.340;2023-02-28T04:19:48;-0.50;99.90
40848;DHT22;26570;50.962;5.340;2023-02-28T04:22:34;-0.40;99.90
40848;DHT22;26570;50.962;5.340;2023-02-28T04:25:19;-0.60;99.90
40848;DHT22;26570;50.962;5.340;2023-02-28T04:28:04;-0.60;99.90
40848;DHT22;26570;50.962;5.340;2023-02-28T04:31:03;-0.60;99.90
40848;DHT22;26570;50.962;5.340;2023-02-28T04:34:14;-0.70;99.90
40848;DHT22;26570;50.962;5.340;2023-02-28T04:36:59;-0.70;99.90
40848;DHT22;26570;50.962;5.340;2023-02-28T04:39:45;-0.70;99.90
40848;DHT22;26570;50.962;5.340;2023-02-28T04:42:30;-0.70;99.90
40848;DHT22;26570;50.962;5.340;2023-02-28T04:45:42;-0.90;99.90
40848;DHT22;26570;50.962;5.340;2023-02-28T04:48:29;-0.80;99.90
40848;DHT22;26570;50.962;5.340;2023-02-28T04:51:16;-0.90;99.90
40848;DHT22;26570;50.962;5.340;2023-02-28T04:54:01;-1.00;99.90
40848;DHT22;26570;50.962;5.340;2023-02-28T04:57:08;-0.30;99.90
40848;DHT22;26570;50.962;5.340;2023-02-28T04:59:54;-1.00;99.90
40848;DHT22;26570;50.962;5.340;2023-02-28T05:02:39;-1.10;99.90
40848;DHT22;26570;50.962;5.340;2023-02-28T05:05:27;-1.20;99.90
40848;DHT22;26570;50.962;5.340;2023-02-28T05:08:12;-1.10;99.90
40848;DHT22;26570;50.962;5.340;2023-02-28T05:10:58;-1.10;99.90
40848;DHT22;26570;50.962;5.340;2023-02-28T05:13:45;-1.10;99.90
40848;DHT22;26570;50.962;5.340;2023-02-28T05:16:31;-1.10;99.90
40848;DHT22;26570;50.962;5.340;2023-02-28T05:19:17;-1.10;99.90
40848;DHT22;26570;50.962;5.340;2023-02-28T05:22:02;-1.10;99.90
40848;DHT22;26570;50.962;5.340;2023-02-28T05:24:47;-1.00;99.90
40848;DHT22;26570;50.962;5.340;2023-02-28T05:27:33;-1.10;99.90
40848;DHT22;26570;50.962;5.340;2023-02-28T05:30:18;-1.10;99.90
40848;DHT22;26570;50.962;5.340;2023-02-28T05:33:03;-1.10;99.90
40848;DHT22;26570;50.962;5.340;2023-02-28T05:35:48;-1.20;99.90
40848;DHT22;26570;50.962;5.340;2023-02-28T05:38:33;-1.20;99.90
40848;DHT22;26570;50.962;5.340;2023-02-28T05:41:42;-1.20;99.90
40848;DHT22;26570;50.962;5.340;2023-02-28T05:44:27;-1.30;99.90
40848;DHT22;26570;50.962;5.340;2023-02-28T05:47:35;-1.30;99.90
40848;DHT22;26570;50.962;5.340;2023-02-28T05:50:20;-1.30;99.90
40848;DHT22;26570;50.962;5.340;2023-02-28T05:53:05;-1.30;99.90
40848;DHT22;26570;50.962;5.340;2023-02-28T05:55:50;-1.30;99.90
40848;DHT22;26570;50.962;5.340;2023-02-28T05:58:35;-1.20;99.90
40848;DHT22;26570;50.962;5.340;2023-02-28T06:01:43;-1.30;99.90
40848;DHT22;26570;50.962;5.340;2023-02-28T06:04:38;-1.40;99.90
40848;DHT22;26570;50.962;5.340;2023-02-28T06:07:45;-1.40;99.90
40848;DHT22;26570;50.962;5.340;2023-02-28T06:10:52;-1.50;99.90
40848;DHT22;26570;50.962;5.340;2023-02-28T06:13:38;-1.50;99.90
40848;DHT22;26570;50.962;5.340;2023-02-28T06:16:24;-1.40;99.90
40848;DHT22;26570;50.962;5.340;2023-02-28T06:19:09;-1.40;99.90
40848;DHT22;26570;50.962;5.340;2023-02-28T06:21:55;-1.40;99.90
40848;DHT22;26570;50.962;5.340;2023-02-28T06:25:05;-1.60;99.90
40848;DHT22;26570;50.962;5.340;2023-02-28T06:27:50;-1.50;99.90
40848;DHT22;26570;50.962;5.340;2023-02-28T06:30:37;-1.60;99.90
40848;DHT22;26570;50.962;5.340;2023-02-28T06:33:23;-1.60;99.90
40848;DHT22;26570;50.962;5.340;2023-02-28T06:36:10;-1.50;99.90
40848;DHT22;26570;50.962;5.340;2023-02-28T06:38:55;-1.60;99.90
40848;DHT22;26570;50.962;5.340;2023-02-28T06:41:40;-1.70;99.90
40848;DHT22;26570;50.962;5.340;2023-02-28T06:44:25;-1.70;99.90
40848;DHT22;26570;50.962;5.340;2023-02-28T06:47:10;-1.70;99.90
40848;DHT22;26570;50.962;5.340;2023-02-28T06:49:55;-1.60;99.90
40848;DHT22;26570;50.962;5.340;2023-02-28T06:53:02;-1.40;99.90
40848;DHT22;26570;50.962;5.340;2023-02-28T06:56:13;-1.30;99.90
40848;DHT22;26570;50.962;5.340;2023-02-28T06:58:58;-1.30;99.90
40848;DHT22;26570;50.962;5.340;2023-02-28T07:01:46;-1.30;99.90
40848;DHT22;26570;50.962;5.340;2023-02-28T07:04:54;-1.20;99.90
40848;DHT22;26570;50.962;5.340;2023-02-28T07:07:42;-1.10;99.90
40848;DHT22;26570;50.962;5.340;2023-02-28T07:10:57;-1.00;99.90
40848;DHT22;26570;50.962;5.340;2023-02-28T07:13:42;-0.90;99.90
40848;DHT22;26570;50.962;5.340;2023-02-28T07:16:26;0.10;99.90
40848;DHT22;26570;50.962;5.340;2023-02-28T07:19:15;-0.10;99.90
40848;DHT22;26570;50.962;5.340;2023-02-28T07:22:03;0.30;99.90
40848;DHT22;26570;50.962;5.340;2023-02-28T07:24:48;0.70;99.90
40848;DHT22;26570;50.962;5.340;2023-02-28T07:27:33;0.90;99.90
40848;DHT22;26570;50.962;5.340;2023-02-28T07:30:19;1.00;99.90
40848;DHT22;26570;50.962;5.340;2023-02-28T07:33:04;1.40;99.90
40848;DHT22;26570;50.962;5.340;2023-02-28T07:35:56;1.70;99.90
40848;DHT22;26570;50.962;5.340;2023-02-28T07:38:47;1.80;99.90
40848;DHT22;26570;50.962;5.340;2023-02-28T07:41:58;2.20;99.90
40848;DHT22;26570;50.962;5.340;2023-02-28T07:44:44;2.70;99.90
40848;DHT22;26570;50.962;5.340;2023-02-28T07:47:30;3.40;99.90
40848;DHT22;26570;50.962;5.340;2023-02-28T07:50:15;3.80;99.90
40848;DHT22;26570;50.962;5.340;2023-02-28T07:53:01;3.80;99.90
40848;DHT22;26570;50.962;5.340;2023-02-28T07:55:45;4.00;99.90
40848;DHT22;26570;50.962;5.340;2023-02-28T07:58:30;4.10;99.90
40848;DHT22;26570;50.962;5.340;2023-02-28T08:01:15;3.90;99.90
40848;DHT22;26570;50.962;5.340;2023-02-28T08:04:00;3.70;99.90
40848;DHT22;26570;50.962;5.340;2023-02-28T08:06:46;3.60;99.90
40848;DHT22;26570;50.962;5.340;2023-02-28T08:09:53;4.30;99.90
40848;DHT22;26570;50.962;5.340;2023-02-28T08:12:38;5.50;99.90
40848;DHT22;26570;50.962;5.340;2023-02-28T08:15:46;6.20;99.90
40848;DHT22;26570;50.962;5.340;2023-02-28T08:18:32;7.10;99.90
40848;DHT22;26570;50.962;5.340;2023-02-28T08:21:18;7.80;99.90
40848;DHT22;26570;50.962;5.340;2023-02-28T08:24:03;8.10;99.90
40848;DHT22;26570;50.962;5.340;2023-02-28T08:26:49;8.60;99.30
40848;DHT22;26570;50.962;5.340;2023-02-28T08:29:37;8.30;98.70
40848;DHT22;26570;50.962;5.340;2023-02-28T08:32:45;8.70;98.80
40848;DHT22;26570;50.962;5.340;2023-02-28T08:35:30;8.20;99.10
40848;DHT22;26570;50.962;5.340;2023-02-28T08:38:38;8.20;98.50
40848;DHT22;26570;50.962;5.340;2023-02-28T08:41:23;7.40;99.10
40848;DHT22;26570;50.962;5.340;2023-02-28T08:44:11;7.90;99.90
40848;DHT22;26570;50.962;5.340;2023-02-28T08:46:56;8.80;99.10
40848;DHT22;26570;50.962;5.340;2023-02-28T08:49:41;9.00;97.90
40848;DHT22;26570;50.962;5.340;2023-02-28T08:52:49;8.60;96.90
40848;DHT22;26570;50.962;5.340;2023-02-28T08:55:35;8.00;97.10
40848;DHT22;26570;50.962;5.340;2023-02-28T08:58:20;8.10;98.70
40848;DHT22;26570;50.962;5.340;2023-02-28T09:01:20;7.80;97.80
40848;DHT22;26570;50.962;5.340;2023-02-28T09:04:30;7.70;98.50
40848;DHT22;26570;50.962;5.340;2023-02-28T09:07:37;7.90;98.00
40848;DHT22;26570;50.962;5.340;2023-02-28T09:10:28;7.60;97.30
40848;DHT22;26570;50.962;5.340;2023-02-28T09:13:13;7.40;99.00
40848;DHT22;26570;50.962;5.340;2023-02-28T09:16:00;7.30;97.10
40848;DHT22;26570;50.962;5.340;2023-02-28T09:19:11;7.30;98.10
40848;DHT22;26570;50.962;5.340;2023-02-28T09:22:03;7.80;96.00
40848;DHT22;26570;50.962;5.340;2023-02-28T09:24:54;8.00;95.50
40848;DHT22;26570;50.962;5.340;2023-02-28T09:27:39;8.10;94.70
40848;DHT22;26570;50.962;5.340;2023-02-28T09:30:31;8.30;94.40
40848;DHT22;26570;50.962;5.340;2023-02-28T09:33:39;8.60;93.40
40848;DHT22;26570;50.962;5.340;2023-02-28T09:36:26;8.80;91.10
40848;DHT22;26570;50.962;5.340;2023-02-28T09:39:11;8.80;91.30
40848;DHT22;26570;50.962;5.340;2023-02-28T09:41:57;8.60;92.30
40848;DHT22;26570;50.962;5.340;2023-02-28T09:44:45;8.50;91.10
40848;DHT22;26570;50.962;5.340;2023-02-28T09:47:34;8.70;90.20
40848;DHT22;26570;50.962;5.340;2023-02-28T09:50:32;8.10;90.20
40848;DHT22;26570;50.962;5.340;2023-02-28T09:53:35;8.10;90.70
40848;DHT22;26570;50.962;5.340;2023-02-28T09:56:43;7.80;92.30
40848;DHT22;26570;50.962;5.340;2023-02-28T09:59:49;7.50;91.20
40848;DHT22;26570;50.962;5.340;2023-02-28T10:05:41;7.70;91.70
40848;DHT22;26570;50.962;5.340;2023-02-28T10:08:38;7.70;92.00
40848;DHT22;26570;50.962;5.340;2023-02-28T10:11:32;7.90;90.70
40848;DHT22;26570;50.962;5.340;2023-02-28T10:14:22;7.90;90.80
40848;DHT22;26570;50.962;5.340;2023-02-28T10:17:27;7.90;89.90
40848;DHT22;26570;50.962;5.340;2023-02-28T10:20:22;7.90;90.80
40848;DHT22;26570;50.962;5.340;2023-02-28T10:23:31;7.80;89.90
40848;DHT22;26570;50.962;5.340;2023-02-28T10:26:20;7.80;90.70
40848;DHT22;26570;50.962;5.340;2023-02-28T10:29:08;7.70;90.00
40848;DHT22;26570;50.962;5.340;2023-02-28T10:32:21;7.70;89.40
40848;DHT22;26570;50.962;5.340;2023-02-28T10:35:19;7.60;90.60
40848;DHT22;26570;50.962;5.340;2023-02-28T10:38:19;7.30;88.30
40848;DHT22;26570;50.962;5.340;2023-02-28T10:41:09;7.40;90.50
40848;DHT22;26570;50.962;5.340;2023-02-28T10:44:13;7.50;90.10
40848;DHT22;26570;50.962;5.340;2023-02-28T10:46:59;7.40;88.50
40848;DHT22;26570;50.962;5.340;2023-02-28T10:49:55;7.30;88.20
40848;DHT22;26570;50.962;5.340;2023-02-28T10:52:44;7.10;89.00
40848;DHT22;26570;50.962;5.340;2023-02-28T10:55:29;6.90;88.90
40848;DHT22;26570;50.962;5.340;2023-02-28T11:01:44;6.90;90.10
40848;DHT22;26570;50.962;5.340;2023-02-28T11:04:41;7.00;87.20
40848;DHT22;26570;50.962;5.340;2023-02-28T11:08:04;7.00;89.60
40848;DHT22;26570;50.962;5.340;2023-02-28T11:10:58;7.00;88.80
40848;DHT22;26570;50.962;5.340;2023-02-28T11:21:52;6.90;88.80
40848;DHT22;26570;50.962;5.340;2023-02-28T11:24:49;7.00;90.20
40848;DHT22;26570;50.962;5.340;2023-02-28T11:28:04;6.90;89.40
40848;DHT22;26570;50.962;5.340;2023-02-28T11:31:20;7.20;88.20
40848;DHT22;26570;50.962;5.340;2023-02-28T11:34:40;7.20;88.90
40848;DHT22;26570;50.962;5.340;2023-02-28T11:37:27;7.20;86.30
40848;DHT22;26570;50.962;5.340;2023-02-28T11:41:03;7.40;87.00
40848;DHT22;26570;50.962;5.340;2023-02-28T11:47:17;8.10;84.90
40848;DHT22;26570;50.962;5.340;2023-02-28T11:50:47;7.60;85.40
40848;DHT22;26570;50.962;5.340;2023-02-28T11:53:43;7.80;85.90
40848;DHT22;26570;50.962;5.340;2023-02-28T11:57:35;7.80;84.50
40848;DHT22;26570;50.962;5.340;2023-02-28T12:04:46;8.00;85.70
40848;DHT22;26570;50.962;5.340;2023-02-28T12:08:04;7.90;84.70
40848;DHT22;26570;50.962;5.340;2023-02-28T12:14:40;8.30;84.50
40848;DHT22;26570;50.962;5.340;2023-02-28T12:27:50;8.10;82.60
40848;DHT22;26570;50.962;5.340;2023-02-28T12:30:45;8.20;84.20
40848;DHT22;26570;50.962;5.340;2023-02-28T12:33:45;8.00;82.10
40848;DHT22;26570;50.962;5.340;2023-02-28T12:36:34;8.00;84.70
40848;DHT22;26570;50.962;5.340;2023-02-28T12:39:31;7.90;83.00
40848;DHT22;26570;50.962;5.340;2023-02-28T12:42:47;8.10;84.30
40848;DHT22;26570;50.962;5.340;2023-02-28T12:45:50;8.00;85.70
40848;DHT22;26570;50.962;5.340;2023-02-28T12:48:56;8.20;83.60
40848;DHT22;26570;50.962;5.340;2023-02-28T12:51:43;8.10;84.10
40848;DHT22;26570;50.962;5.340;2023-02-28T12:58:01;8.10;84.50
40848;DHT22;26570;50.962;5.340;2023-02-28T13:10:22;8.00;84.60
40848;DHT22;26570;50.962;5.340;2023-02-28T13:13:35;8.00;85.10
40848;DHT22;26570;50.962;5.340;2023-02-28T13:17:20;8.20;83.30
40848;DHT22;26570;50.962;5.340;2023-02-28T13:20:24;8.40;84.10
40848;DHT22;26570;50.962;5.340;2023-02-28T13:29:30;8.60;83.10
40848;DHT22;26570;50.962;5.340;2023-02-28T13:46:13;8.80;84.60
40848;DHT22;26570;50.962;5.340;2023-02-28T13:52:21;9.00;83.90
40848;DHT22;26570;50.962;5.340;2023-02-28T14:05:21;8.90;83.50
40848;DHT22;26570;50.962;5.340;2023-02-28T14:08:18;8.80;84.60
40848;DHT22;26570;50.962;5.340;2023-02-28T14:11:25;9.10;86.10
40848;DHT22;26570;50.962;5.340;2023-02-28T14:17:44;9.00;85.50
40848;DHT22;26570;50.962;5.340;2023-02-28T14:20:32;8.90;88.20
40848;DHT22;26570;50.962;5.340;2023-02-28T14:30:13;8.70;86.30
40848;DHT22;26570;50.962;5.340;2023-02-28T14:36:30;8.40;86.10
40848;DHT22;26570;50.962;5.340;2023-02-28T14:39:42;8.40;86.50
40848;DHT22;26570;50.962;5.340;2023-02-28T14:42:34;8.50;86.90
40848;DHT22;26570;50.962;5.340;2023-02-28T14:45:20;8.70;85.10
40848;DHT22;26570;50.962;5.340;2023-02-28T14:48:34;8.50;86.30
40848;DHT22;26570;50.962;5.340;2023-02-28T14:51:46;8.40;86.20
40848;DHT22;26570;50.962;5.340;2023-02-28T14:54:32;8.50;89.00
40848;DHT22;26570;50.962;5.340;2023-02-28T14:57:42;8.50;86.20
40848;DHT22;26570;50.962;5.340;2023-02-28T15:01:04;8.60;85.20
40848;DHT22;26570;50.962;5.340;2023-02-28T15:04:25;8.60;85.90
40848;DHT22;26570;50.962;5.340;2023-02-28T15:07:17;8.70;86.20
40848;DHT22;26570;50.962;5.340;2023-02-28T15:10:29;8.70;84.50
40848;DHT22;26570;50.962;5.340;2023-02-28T15:13:15;8.70;85.30
40848;DHT22;26570;50.962;5.340;2023-02-28T15:16:06;8.80;84.40
40848;DHT22;26570;50.962;5.340;2023-02-28T15:18:54;8.60;84.20
40848;DHT22;26570;50.962;5.340;2023-02-28T15:21:46;8.50;85.80
40848;DHT22;26570;50.962;5.340;2023-02-28T15:24:45;8.50;86.10
40848;DHT22;26570;50.962;5.340;2023-02-28T15:27:55;8.70;84.90
40848;DHT22;26570;50.962;5.340;2023-02-28T15:30:54;8.70;84.90
40848;DHT22;26570;50.962;5.340;2023-02-28T15:33:53;8.70;84.50
40848;DHT22;26570;50.962;5.340;2023-02-28T15:36:39;8.60;85.80
40848;DHT22;26570;50.962;5.340;2023-02-28T15:39:26;8.50;84.40
40848;DHT22;26570;50.962;5.340;2023-02-28T15:42:19;8.30;86.20
40848;DHT22;26570;50.962;5.340;2023-02-28T15:45:04;8.30;87.60
40848;DHT22;26570;50.962;5.340;2023-02-28T15:47:50;8.40;85.50
40848;DHT22;26570;50.962;5.340;2023-02-28T15:50:35;8.40;86.50
40848;DHT22;26570;50.962;5.340;2023-02-28T15:53:29;8.50;87.80
40848;DHT22;26570;50.962;5.340;2023-02-28T15:56:50;8.40;85.10
40848;DHT22;26570;50.962;5.340;2023-02-28T16:00:01;8.10;88.40
40848;DHT22;26570;50.962;5.340;2023-02-28T16:02:49;8.30;86.90
40848;DHT22;26570;50.962;5.340;2023-02-28T16:05:34;8.40;86.20
40848;DHT22;26570;50.962;5.340;2023-02-28T16:08:20;8.10;87.60
40848;DHT22;26570;50.962;5.340;2023-02-28T16:11:05;7.90;87.90
40848;DHT22;26570;50.962;5.340;2023-02-28T16:13:53;7.90;88.30
40848;DHT22;26570;50.962;5.340;2023-02-28T16:16:46;7.90;87.80
40848;DHT22;26570;50.962;5.340;2023-02-28T16:19:32;7.90;87.80
40848;DHT22;26570;50.962;5.340;2023-02-28T16:22:18;7.90;88.00
40848;DHT22;26570;50.962;5.340;2023-02-28T16:25:03;7.90;88.30
40848;DHT22;26570;50.962;5.340;2023-02-28T16:27:50;7.90;88.20
40848;DHT22;26570;50.962;5.340;2023-02-28T16:31:05;7.40;88.80
40848;DHT22;26570;50.962;5.340;2023-02-28T16:33:51;7.20;88.40
40848;DHT22;26570;50.962;5.340;2023-02-28T16:36:36;7.20;88.40
40848;DHT22;26570;50.962;5.340;2023-02-28T16:39:22;7.30;89.40
40848;DHT22;26570;50.962;5.340;2023-02-28T16:42:32;7.30;89.40
40848;DHT22;26570;50.962;5.340;2023-02-28T16:45:24;7.10;90.00
40848;DHT22;26570;50.962;5.340;2023-02-28T16:48:16;6.90;90.80
40848;DHT22;26570;50.962;5.340;2023-02-28T16:51:02;6.80;90.70
40848;DHT22;26570;50.962;5.340;2023-02-28T16:53:49;6.80;91.10
40848;DHT22;26570;50.962;5.340;2023-02-28T16:56:34;6.50;91.50
40848;DHT22;26570;50.962;5.340;2023-02-28T16:59:22;6.50;91.30
40848;DHT22;26570;50.962;5.340;2023-02-28T17:02:31;6.50;91.50
40848;DHT22;26570;50.962;5.340;2023-02-28T17:05:17;6.20;91.80
40848;DHT22;26570;50.962;5.340;2023-02-28T17:08:09;6.20;92.10
40848;DHT22;26570;50.962;5.340;2023-02-28T17:10:54;5.90;93.20
40848;DHT22;26570;50.962;5.340;2023-02-28T17:13:39;5.70;93.30
40848;DHT22;26570;50.962;5.340;2023-02-28T17:16:31;5.60;93.20
40848;DHT22;26570;50.962;5.340;2023-02-28T17:19:17;5.40;94.50
40848;DHT22;26570;50.962;5.340;2023-02-28T17:22:03;5.40;94.40
40848;DHT22;26570;50.962;5.340;2023-02-28T17:24:48;5.30;94.60
40848;DHT22;26570;50.962;5.340;2023-02-28T17:27:33;5.20;94.40
40848;DHT22;26570;50.962;5.340;2023-02-28T17:30:26;5.10;94.40
40848;DHT22;26570;50.962;5.340;2023-02-28T17:33:12;5.00;94.60
40848;DHT22;26570;50.962;5.340;2023-02-28T17:35:57;4.80;94.90
40848;DHT22;26570;50.962;5.340;2023-02-28T17:38:42;4.70;95.10
40848;DHT22;26570;50.962;5.340;2023-02-28T17:41:53;4.60;95.20
40848;DHT22;26570;50.962;5.340;2023-02-28T17:45:01;4.40;95.90
40848;DHT22;26570;50.962;5.340;2023-02-28T17:48:11;4.30;95.90
40848;DHT22;26570;50.962;5.340;2023-02-28T17:50:59;4.30;96.20
40848;DHT22;26570;50.962;5.340;2023-02-28T17:53:44;4.20;96.60
40848;DHT22;26570;50.962;5.340;2023-02-28T17:56:55;4.10;96.70
40848;DHT22;26570;50.962;5.340;2023-02-28T17:59:40;4.00;97.40
40848;DHT22;26570;50.962;5.340;2023-02-28T18:02:26;4.00;97.40
40848;DHT22;26570;50.962;5.340;2023-02-28T18:05:12;3.90;97.50
40848;DHT22;26570;50.962;5.340;2023-02-28T18:07:57;3.90;97.80
40848;DHT22;26570;50.962;5.340;2023-02-28T18:10:43;3.80;98.00
40848;DHT22;26570;50.962;5.340;2023-02-28T18:13:52;3.60;98.80
40848;DHT22;26570;50.962;5.340;2023-02-28T18:16:41;3.50;99.20
40848;DHT22;26570;50.962;5.340;2023-02-28T18:19:27;3.40;99.70
40848;DHT22;26570;50.962;5.340;2023-02-28T18:22:12;3.40;99.90
40848;DHT22;26570;50.962;5.340;2023-02-28T18:25:02;3.30;99.90
40848;DHT22;26570;50.962;5.340;2023-02-28T18:27:48;3.30;99.90
40848;DHT22;26570;50.962;5.340;2023-02-28T18:31:08;3.30;99.90
40848;DHT22;26570;50.962;5.340;2023-02-28T18:33:53;3.30;99.90
40848;DHT22;26570;50.962;5.340;2023-02-28T18:36:39;3.20;99.90
40848;DHT22;26570;50.962;5.340;2023-02-28T18:39:25;3.00;99.90
40848;DHT22;26570;50.962;5.340;2023-02-28T18:42:10;2.90;99.90
40848;DHT22;26570;50.962;5.340;2023-02-28T18:44:55;2.90;99.90
40848;DHT22;26570;50.962;5.340;2023-02-28T18:47:44;2.90;99.90
40848;DHT22;26570;50.962;5.340;2023-02-28T18:50:35;2.80;99.90
40848;DHT22;26570;50.962;5.340;2023-02-28T18:53:54;2.80;99.90
40848;DHT22;26570;50.962;5.340;2023-02-28T18:56:43;2.70;99.90
40848;DHT22;26570;50.962;5.340;2023-02-28T18:59:29;2.70;99.90
40848;DHT22;26570;50.962;5.340;2023-02-28T19:02:39;2.60;99.90
40848;DHT22;26570;50.962;5.340;2023-02-28T19:05:24;2.60;99.90
40848;DHT22;26570;50.962;5.340;2023-02-28T19:08:12;2.40;99.90
40848;DHT22;26570;50.962;5.340;2023-02-28T19:11:06;2.00;99.90
40848;DHT22;26570;50.962;5.340;2023-02-28T19:14:14;2.50;99.90
40848;DHT22;26570;50.962;5.340;2023-02-28T19:17:01;2.40;99.90
40848;DHT22;26570;50.962;5.340;2023-02-28T19:19:49;2.40;99.90
40848;DHT22;26570;50.962;5.340;2023-02-28T19:22:57;2.20;99.90
40848;DHT22;26570;50.962;5.340;2023-02-28T19:25:48;2.20;99.90
40848;DHT22;26570;50.962;5.340;2023-02-28T19:28:34;2.00;99.90
40848;DHT22;26570;50.962;5.340;2023-02-28T19:31:23;2.00;99.90
40848;DHT22;26570;50.962;5.340;2023-02-28T19:34:31;2.00;99.90
40848;DHT22;26570;50.962;5.340;2023-02-28T19:37:15;1.90;99.90
40848;DHT22;26570;50.962;5.340;2023-02-28T19:40:16;1.90;99.90
40848;DHT22;26570;50.962;5.340;2023-02-28T19:43:04;1.80;99.90
40848;DHT22;26570;50.962;5.340;2023-02-28T19:46:17;1.80;99.90
40848;DHT22;26570;50.962;5.340;2023-02-28T19:49:02;1.70;99.90
40848;DHT22;26570;50.962;5.340;2023-02-28T19:51:48;1.90;99.90
40848;DHT22;26570;50.962;5.340;2023-02-28T19:54:33;1.80;99.90
40848;DHT22;26570;50.962;5.340;2023-02-28T19:57:19;1.70;99.90
40848;DHT22;26570;50.962;5.340;2023-02-28T20:00:08;1.70;99.90
40848;DHT22;26570;50.962;5.340;2023-02-28T20:02:54;1.80;99.90
40848;DHT22;26570;50.962;5.340;2023-02-28T20:05:39;1.70;99.90
40848;DHT22;26570;50.962;5.340;2023-02-28T20:08:27;1.70;99.90
40848;DHT22;26570;50.962;5.340;2023-02-28T20:11:15;1.60;99.90
40848;DHT22;26570;50.962;5.340;2023-02-28T20:14:00;1.60;99.90
40848;DHT22;26570;50.962;5.340;2023-02-28T20:16:49;1.60;99.90
40848;DHT22;26570;50.962;5.340;2023-02-28T20:19:57;1.60;99.90
40848;DHT22;26570;50.962;5.340;2023-02-28T20:22:42;1.50;99.90
40848;DHT22;26570;50.962;5.340;2023-02-28T20:25:28;1.50;99.90
40848;DHT22;26570;50.962;5.340;2023-02-28T20:28:37;1.50;99.90
40848;DHT22;26570;50.962;5.340;2023-02-28T20:31:46;1.50;99.90
40848;DHT22;26570;50.962;5.340;2023-02-28T20:34:31;1.40;99.90
40848;DHT22;26570;50.962;5.340;2023-02-28T20:37:16;1.30;99.90
40848;DHT22;26570;50.962;5.340;2023-02-28T20:40:02;1.20;99.90
40848;DHT22;26570;50.962;5.340;2023-02-28T20:43:12;1.20;99.90
40848;DHT22;26570;50.962;5.340;2023-02-28T20:45:58;1.10;99.90
40848;DHT22;26570;50.962;5.340;2023-02-28T20:48:50;1.20;99.90
40848;DHT22;26570;50.962;5.340;2023-02-28T20:51:59;1.50;99.90
40848;DHT22;26570;50.962;5.340;2023-02-28T20:54:44;1.30;99.90
40848;DHT22;26570;50.962;5.340;2023-02-28T20:57:33;1.30;99.90
40848;DHT22;26570;50.962;5.340;2023-02-28T21:00:40;1.30;99.90
40848;DHT22;26570;50.962;5.340;2023-02-28T21:03:26;1.10;99.90
40848;DHT22;26570;50.962;5.340;2023-02-28T21:06:12;1.10;99.90
40848;DHT22;26570;50.962;5.340;2023-02-28T21:09:00;1.20;99.90
40848;DHT22;26570;50.962;5.340;2023-02-28T21:11:45;1.20;99.90
40848;DHT22;26570;50.962;5.340;2023-02-28T21:14:33;1.20;99.90
40848;DHT22;26570;50.962;5.340;2023-02-28T21:17:19;1.10;99.90
40848;DHT22;26570;50.962;5.340;2023-02-28T21:20:05;1.00;99.90
40848;DHT22;26570;50.962;5.340;2023-02-28T21:23:13;0.90;99.90
40848;DHT22;26570;50.962;5.340;2023-02-28T21:26:03;0.80;99.90
40848;DHT22;26570;50.962;5.340;2023-02-28T21:28:56;0.90;99.90
40848;DHT22;26570;50.962;5.340;2023-02-28T21:31:44;0.90;99.90
40848;DHT22;26570;50.962;5.340;2023-02-28T21:34:32;0.80;99.90